Time;durP1;ratioP1;P1;durP2;ratioP2;P2;SDS_P1;SDS_P2;PMS_P1;PMS_P2;Temp;Humidity;BMP_temperature;BMP_pressure;BME280_temperature;BME280_humidity;BME280_pressure;Samples;Min_cycle;Max_cycle;Signal;HPM_P1;HPM_P2
2021/09/23 00:00:04;;;;;;;13.63;3.92;;;;;;;14.94;86.36;100880.13;5094303;28;20081;-76
2021/09/23 00:02:47;;;;;;;15.65;4.40;;;;;;;14.96;86.48;100874.38;5093418;28;20477;-75
2021/09/23 00:05:26;;;;;;;19.73;4.82;;;;;;;14.96;86.79;100858.69;5090771;28;20111;-75
2021/09/23 00:07:52;;;;;;;13.18;4.38;;;;;;;14.98;87.02;100837.25;5074888;28;20031;-75
2021/09/23 00:10:20;;;;;;;21.90;5.10;;;;;;;15.00;86.98;100824.03;5090501;28;20055;-76
2021/09/23 00:12:45;;;;;;;18.40;5.43;;;;;;;15.00;87.13;100826.75;5090970;28;20373;-76
2021/09/23 00:15:11;;;;;;;15.23;4.55;;;;;;;15.02;87.14;100824.53;5077299;28;20028;-76
2021/09/23 00:17:37;;;;;;;15.38;5.18;;;;;;;15.05;87.20;100817.63;5094288;28;20062;-75
2021/09/23 00:20:03;;;;;;;15.27;5.50;;;;;;;15.08;87.25;100804.09;5094305;28;20051;-75
2021/09/23 00:22:29;;;;;;;15.00;4.63;;;;;;;15.13;87.42;100800.44;5088166;28;20509;-75
2021/09/23 00:24:54;;;;;;;19.15;5.03;;;;;;;15.15;86.99;100800.16;5075116;28;20021;-76
2021/09/23 00:27:20;;;;;;;17.92;5.53;;;;;;;15.19;86.87;100795.66;5078017;28;20024;-75
2021/09/23 00:29:45;;;;;;;17.48;5.35;;;;;;;15.20;87.03;100803.63;5085386;28;20421;-75
2021/09/23 00:32:12;;;;;;;19.98;4.85;;;;;;;15.22;86.96;100789.56;5076281;28;20028;-76
2021/09/23 00:34:37;;;;;;;24.73;5.38;;;;;;;15.21;86.97;100787.94;5085095;28;20025;-74
2021/09/23 00:37:03;;;;;;;21.42;5.32;;;;;;;15.21;86.93;100782.47;5076043;28;20027;-76
2021/09/23 00:39:28;;;;;;;20.98;5.18;;;;;;;15.21;87.29;100772.28;5093372;28;20028;-75
2021/09/23 00:41:53;;;;;;;13.50;5.03;;;;;;;15.22;86.93;100765.69;5093451;28;20043;-75
2021/09/23 00:44:21;;;;;;;20.30;4.55;;;;;;;15.23;86.92;100758.25;5092417;28;20070;-76
2021/09/23 00:46:47;;;;;;;20.20;4.82;;;;;;;15.23;87.11;100755.50;5093746;28;20473;-76
2021/09/23 00:49:12;;;;;;;24.95;4.68;;;;;;;15.23;87.24;100758.25;5078023;28;20028;-76
2021/09/23 00:51:38;;;;;;;17.33;4.82;;;;;;;15.24;87.44;100755.19;5074649;28;20356;-75
2021/09/23 00:54:05;;;;;;;20.48;5.03;;;;;;;15.25;87.57;100750.50;5073914;28;20103;-76
2021/09/23 00:56:30;;;;;;;19.20;5.65;;;;;;;15.25;87.50;100745.84;5079138;28;20474;-75
2021/09/23 00:58:57;;;;;;;17.95;5.35;;;;;;;15.27;87.54;100748.28;5074429;28;20071;-75
2021/09/23 01:01:23;;;;;;;15.88;4.35;;;;;;;15.25;87.51;100740.34;5094045;28;20028;-76
2021/09/23 01:03:48;;;;;;;11.45;4.50;;;;;;;15.25;87.54;100739.50;5074050;28;20081;-73
2021/09/23 01:06:14;;;;;;;21.45;6.00;;;;;;;15.28;87.62;100741.69;5074183;28;20025;-74
2021/09/23 01:08:39;;;;;;;19.90;5.43;;;;;;;15.28;87.61;100722.44;5087885;28;20024;-75
2021/09/23 01:11:05;;;;;;;16.25;4.65;;;;;;;15.29;87.49;100715.81;5082784;28;20074;-74
2021/09/23 01:13:30;;;;;;;13.13;4.50;;;;;;;15.31;87.54;100699.84;5092100;28;20081;-76
2021/09/23 01:15:56;;;;;;;15.00;4.38;;;;;;;15.33;87.27;100697.59;5092973;28;20095;-75
2021/09/23 01:18:22;;;;;;;17.48;4.80;;;;;;;15.34;87.37;100687.44;5077750;28;20028;-75
2021/09/23 01:20:47;;;;;;;13.65;5.05;;;;;;;15.35;87.46;100686.31;5074867;28;20032;-75
2021/09/23 01:23:13;;;;;;;16.48;4.68;;;;;;;15.34;87.36;100688.25;5081035;28;20515;-75
2021/09/23 01:25:38;;;;;;;18.10;5.55;;;;;;;15.35;87.52;100684.38;5073574;28;20029;-74
2021/09/23 01:28:05;;;;;;;13.57;4.40;;;;;;;15.37;87.43;100675.84;5086141;28;20019;-74
2021/09/23 01:30:30;;;;;;;11.38;3.80;;;;;;;15.38;87.61;100677.44;5060210;28;20077;-76
2021/09/23 01:32:56;;;;;;;14.25;4.32;;;;;;;15.40;87.71;100675.22;5084559;28;20020;-76
2021/09/23 01:35:21;;;;;;;18.27;6.43;;;;;;;15.40;87.89;100677.97;5088010;28;20074;-75
2021/09/23 01:37:46;;;;;;;17.20;5.38;;;;;;;15.38;87.75;100664.53;5080485;28;20032;-75
2021/09/23 01:40:12;;;;;;;14.05;4.72;;;;;;;15.38;87.77;100663.72;5092648;28;20016;-75
2021/09/23 01:42:42;;;;;;;14.30;5.35;;;;;;;15.36;87.71;100664.03;5091000;28;20044;-75
2021/09/23 01:45:08;;;;;;;20.02;5.57;;;;;;;15.36;87.65;100653.06;5093488;28;20024;-75
2021/09/23 01:47:33;;;;;;;16.98;5.07;;;;;;;15.36;87.95;100653.06;5064115;28;20028;-74
2021/09/23 01:49:59;;;;;;;14.90;5.32;;;;;;;15.36;88.06;100636.56;5072233;28;20086;-75
2021/09/23 01:52:25;;;;;;;17.00;4.93;;;;;;;15.35;87.99;100623.94;5071871;28;20031;-75
2021/09/23 01:54:50;;;;;;;22.83;6.95;;;;;;;15.34;87.87;100638.00;5075205;28;20025;-75
2021/09/23 01:57:15;;;;;;;20.15;6.22;;;;;;;15.32;87.90;100613.56;5092452;28;20020;-75
2021/09/23 01:59:41;;;;;;;16.92;5.43;;;;;;;15.32;88.04;100608.09;5093402;28;20024;-75
2021/09/23 02:02:06;;;;;;;17.42;5.50;;;;;;;15.30;88.24;100602.09;5090853;28;20092;-75
2021/09/23 02:04:32;;;;;;;21.38;6.22;;;;;;;15.29;88.39;100590.28;5092339;28;20436;-75
2021/09/23 02:06:57;;;;;;;16.33;5.72;;;;;;;15.30;88.28;100588.34;5085529;28;20028;-74
2021/09/23 02:09:22;;;;;;;17.35;6.10;;;;;;;15.29;88.47;100592.22;5091851;28;20027;-76
2021/09/23 02:11:48;;;;;;;13.77;5.22;;;;;;;15.30;88.42;100577.34;5092362;28;20023;-75
2021/09/23 02:14:13;;;;;;;17.65;6.05;;;;;;;15.28;88.16;100574.94;5083997;28;20073;-75
2021/09/23 02:16:39;;;;;;;18.20;5.35;;;;;;;15.28;88.16;100558.47;5072859;28;20028;-75
2021/09/23 02:19:05;;;;;;;14.20;5.60;;;;;;;15.30;88.13;100545.25;5054669;28;20477;-75
2021/09/23 02:21:31;;;;;;;23.95;5.68;;;;;;;15.29;88.11;100531.81;5072826;28;20085;-75
2021/09/23 02:23:56;;;;;;;16.15;6.72;;;;;;;15.30;87.79;100525.19;5086075;28;20421;-75
2021/09/23 02:26:21;;;;;;;17.95;4.80;;;;;;;15.29;87.89;100521.63;5071513;28;20025;-75
2021/09/23 02:28:47;;;;;;;22.65;6.47;;;;;;;15.30;87.87;100511.44;5085349;28;20027;-74
2021/09/23 02:31:12;;;;;;;19.60;5.00;;;;;;;15.29;87.86;100513.38;5071436;28;20095;-75
2021/09/23 02:33:38;;;;;;;15.13;5.03;;;;;;;15.31;87.62;100515.84;5072415;28;20031;-75
2021/09/23 02:36:03;;;;;;;13.80;4.85;;;;;;;15.31;87.86;100507.59;5075555;28;20047;-74
2021/09/23 02:38:29;;;;;;;19.85;5.63;;;;;;;15.30;88.13;100501.28;5084557;28;20161;-75
2021/09/23 02:40:55;;;;;;;18.35;5.25;;;;;;;15.30;87.80;100493.06;5092380;28;20043;-74
2021/09/23 02:43:20;;;;;;;15.27;6.45;;;;;;;15.29;88.00;100487.84;5090418;28;20024;-75
2021/09/23 02:45:46;;;;;;;22.00;6.53;;;;;;;15.29;88.18;100476.88;5092449;28;20031;-75
2021/09/23 02:48:11;;;;;;;15.45;6.20;;;;;;;15.29;88.26;100482.38;5089292;28;20023;-75
2021/09/23 02:50:36;;;;;;;16.48;5.68;;;;;;;15.30;88.28;100483.97;5092759;28;20039;-75
2021/09/23 02:53:02;;;;;;;17.42;5.90;;;;;;;15.30;88.25;100473.00;5091216;28;20027;-75
2021/09/23 02:55:27;;;;;;;15.52;5.75;;;;;;;15.31;88.39;100474.63;5085303;28;20367;-75
2021/09/23 02:57:53;;;;;;;22.42;6.93;;;;;;;15.28;88.67;100459.59;5078821;28;20039;-75
2021/09/23 03:00:19;;;;;;;18.40;6.07;;;;;;;15.30;88.64;100451.03;5091291;28;20024;-75
2021/09/23 03:02:44;;;;;;;25.33;6.80;;;;;;;15.30;88.88;100437.28;5080077;28;20090;-75
2021/09/23 03:05:10;;;;;;;21.55;6.22;;;;;;;15.27;88.91;100430.47;5087528;28;20465;-75
2021/09/23 03:07:35;;;;;;;24.02;6.88;;;;;;;15.22;89.42;100416.91;5089170;28;20117;-75
2021/09/23 03:10:01;;;;;;;22.30;7.15;;;;;;;15.19;89.51;100397.47;5092350;28;20389;-75
2021/09/23 03:12:26;;;;;;;19.02;7.10;;;;;;;15.16;89.90;100407.16;5091377;28;20032;-75
2021/09/23 03:14:51;;;;;;;17.13;6.78;;;;;;;15.13;90.20;100401.50;5092528;28;20081;-74
2021/09/23 03:17:17;;;;;;;24.30;8.02;;;;;;;15.12;90.36;100395.19;5088176;28;20378;-73
2021/09/23 03:19:42;;;;;;;20.83;7.70;;;;;;;15.13;90.67;100380.34;5093881;28;20024;-74
2021/09/23 03:22:09;;;;;;;19.08;6.68;;;;;;;15.13;90.63;100374.03;5095614;28;20961;-73
2021/09/23 03:24:35;;;;;;;24.92;8.32;;;;;;;15.12;91.08;100378.72;5085807;28;20039;-74
2021/09/23 03:27:00;;;;;;;21.92;8.05;;;;;;;15.14;90.97;100381.97;5091080;28;20397;-74
2021/09/23 03:29:26;;;;;;;18.17;6.22;;;;;;;15.16;91.15;100389.88;5093826;28;20028;-74
2021/09/23 03:31:51;;;;;;;15.25;7.07;;;;;;;15.15;91.35;100382.78;5078143;28;20024;-74
2021/09/23 03:34:16;;;;;;;21.50;7.55;;;;;;;15.16;91.37;100359.69;5091472;28;20020;-74
2021/09/23 03:36:42;;;;;;;26.35;7.78;;;;;;;15.16;91.40;100363.22;5096059;28;20020;-74
2021/09/23 03:39:09;;;;;;;22.98;6.65;;;;;;;15.16;91.32;100362.41;5093395;28;20035;-74
2021/09/23 03:41:34;;;;;;;20.27;7.68;;;;;;;15.16;91.53;100349.50;5085603;28;20074;-74
2021/09/23 03:43:59;;;;;;;17.13;6.43;;;;;;;15.19;91.59;100339.81;5088441;28;20032;-74
2021/09/23 03:46:25;;;;;;;20.30;6.68;;;;;;;15.20;91.46;100341.47;5094890;28;20373;-74
2021/09/23 03:48:51;;;;;;;16.95;6.25;;;;;;;15.21;91.63;100332.88;5076800;28;20028;-74
2021/09/23 03:51:16;;;;;;;22.75;8.27;;;;;;;15.22;91.82;100337.28;5094326;28;20057;-74
2021/09/23 03:53:42;;;;;;;16.48;6.13;;;;;;;15.23;91.57;100327.09;5093446;28;20500;-74
2021/09/23 03:56:07;;;;;;;22.33;6.72;;;;;;;15.23;91.71;100313.38;5094532;28;20035;-74
2021/09/23 03:58:33;;;;;;;21.38;6.70;;;;;;;15.25;91.68;100317.41;5075530;28;20024;-74
2021/09/23 04:00:58;;;;;;;20.50;6.80;;;;;;;15.25;91.77;100306.44;5089309;28;20077;-74
2021/09/23 04:03:24;;;;;;;20.23;6.78;;;;;;;15.25;91.95;100302.84;5092854;28;20047;-74
2021/09/23 04:05:50;;;;;;;19.27;7.30;;;;;;;15.25;91.81;100306.44;5095794;28;20028;-74
2021/09/23 04:08:16;;;;;;;21.63;8.10;;;;;;;15.24;92.11;100293.00;5094343;28;20016;-74
2021/09/23 04:10:41;;;;;;;21.02;8.02;;;;;;;15.24;92.18;100269.09;5070749;28;20024;-74
2021/09/23 04:13:07;;;;;;;18.90;7.05;;;;;;;15.25;92.10;100267.16;5080619;28;20457;-75
2021/09/23 04:15:32;;;;;;;19.10;6.30;;;;;;;15.25;92.27;100256.16;5094135;28;20028;-75
2021/09/23 04:17:58;;;;;;;18.88;7.55;;;;;;;15.23;92.29;100258.44;5070560;28;20024;-72
2021/09/23 04:20:23;;;;;;;21.92;7.47;;;;;;;15.24;92.34;100254.56;5093988;28;20092;-73
2021/09/23 04:22:48;;;;;;;24.55;8.13;;;;;;;15.23;92.23;100247.47;5092423;28;20149;-74
2021/09/23 04:25:14;;;;;;;18.58;6.65;;;;;;;15.23;92.30;100255.69;5074728;28;20024;-73
2021/09/23 04:27:39;;;;;;;19.75;7.05;;;;;;;15.22;92.45;100216.44;5075766;28;20512;-73
2021/09/23 04:30:05;;;;;;;27.17;8.25;;;;;;;15.20;92.57;100215.94;5087980;28;20025;-74
2021/09/23 04:32:30;;;;;;;21.17;8.10;;;;;;;15.14;92.73;100230.97;5056957;28;20021;-74
2021/09/23 04:34:56;;;;;;;25.73;7.43;;;;;;;15.08;93.11;100211.03;5088484;28;20359;-74
2021/09/23 04:37:21;;;;;;;23.45;7.60;;;;;;;15.02;93.71;100204.09;5093757;28;20031;-75
2021/09/23 04:39:47;;;;;;;19.73;8.00;;;;;;;14.98;94.29;100202.31;5076207;28;20024;-75
2021/09/23 04:42:12;;;;;;;23.50;7.25;;;;;;;14.94;94.51;100180.16;5073123;28;20371;-76
2021/09/23 04:44:37;;;;;;;20.30;8.13;;;;;;;14.88;95.11;100181.44;5077235;28;20085;-76
2021/09/23 04:47:04;;;;;;;29.90;9.05;;;;;;;14.84;95.41;100178.53;5074520;28;20334;-75
2021/09/23 04:49:30;;;;;;;24.35;8.80;;;;;;;14.83;95.81;100162.38;5074253;28;20478;-76
2021/09/23 04:51:55;;;;;;;19.80;8.65;;;;;;;14.82;96.10;100156.09;5073500;28;20021;-75
2021/09/23 04:54:21;;;;;;;28.58;9.48;;;;;;;14.85;96.45;100160.13;5087843;28;20062;-75
2021/09/23 04:56:46;;;;;;;29.67;9.38;;;;;;;14.87;96.58;100171.59;5080603;28;20023;-75
2021/09/23 04:59:13;;;;;;;17.25;8.57;;;;;;;14.88;96.69;100151.25;5090073;28;20548;-75
2021/09/23 05:01:38;;;;;;;28.65;9.45;;;;;;;14.90;96.71;100139.97;5093377;28;20467;-75
2021/09/23 05:04:04;;;;;;;25.98;8.57;;;;;;;14.90;96.97;100142.72;5085240;28;20028;-74
2021/09/23 05:06:29;;;;;;;20.65;7.30;;;;;;;14.89;96.94;100144.63;5074116;28;20025;-74
2021/09/23 05:08:54;;;;;;;33.53;9.90;;;;;;;14.90;97.16;100148.22;5075612;28;20035;-75
2021/09/23 05:11:20;;;;;;;25.77;8.07;;;;;;;14.87;97.48;100122.22;5092605;28;20019;-76
2021/09/23 05:13:45;;;;;;;28.17;7.95;;;;;;;14.86;97.52;100110.41;5089311;28;20064;-75
2021/09/23 05:16:11;;;;;;;25.40;9.50;;;;;;;14.84;97.95;100111.84;5094157;28;20016;-75
2021/09/23 05:18:36;;;;;;;23.73;7.65;;;;;;;14.83;98.03;100102.00;5082154;28;20024;-75
2021/09/23 05:21:01;;;;;;;26.35;8.13;;;;;;;14.80;98.28;100108.13;5081755;28;20016;-75
2021/09/23 05:23:28;;;;;;;22.30;7.40;;;;;;;14.78;98.72;100091.97;5092749;28;20381;-75
2021/09/23 05:25:53;;;;;;;31.60;9.85;;;;;;;14.76;98.96;100087.94;5094205;28;20376;-75
2021/09/23 05:28:19;;;;;;;28.10;7.78;;;;;;;14.75;99.09;100067.13;5092662;28;20038;-75
2021/09/23 05:30:44;;;;;;;33.25;9.70;;;;;;;14.76;99.36;100057.75;5075673;28;20019;-75
2021/09/23 05:33:12;;;;;;;20.33;6.45;;;;;;;14.77;99.70;100081.34;5092601;28;20029;-75
2021/09/23 05:35:37;;;;;;;23.77;7.18;;;;;;;14.76;99.98;100039.38;5077509;28;20146;-74
2021/09/23 05:38:03;;;;;;;31.75;7.55;;;;;;;14.79;100.00;100048.91;5073502;28;20112;-74
2021/09/23 05:40:28;;;;;;;23.55;8.23;;;;;;;14.79;100.00;100033.25;5072370;28;20036;-74
2021/09/23 05:42:53;;;;;;;17.00;6.88;;;;;;;14.83;100.00;100022.44;5072020;28;20048;-74
2021/09/23 05:45:19;;;;;;;26.58;8.38;;;;;;;14.85;100.00;100033.91;5092549;28;20043;-73
2021/09/23 05:47:46;;;;;;;20.20;6.18;;;;;;;14.87;100.00;100021.47;5092089;28;20015;-74
2021/09/23 05:50:12;;;;;;;29.73;9.18;;;;;;;14.88;100.00;100022.28;5074765;28;20059;-75
2021/09/23 05:52:37;;;;;;;23.25;7.55;;;;;;;14.88;100.00;100001.13;5086215;28;20028;-75
2021/09/23 05:55:03;;;;;;;26.80;8.57;;;;;;;14.88;100.00;100008.56;5085129;28;20058;-76
2021/09/23 05:57:35;;;;;;;22.52;6.93;;;;;;;14.87;100.00;99988.53;5082401;28;20115;-76
2021/09/23 06:00:11;;;;;;;22.13;6.67;;;;;;;14.87;100.00;99994.03;5073019;28;20028;-76
2021/09/23 06:02:36;;;;;;;17.27;5.32;;;;;;;14.87;100.00;99994.03;5065369;28;20310;-76
2021/09/23 06:05:02;;;;;;;12.80;5.25;;;;;;;14.87;100.00;99982.25;5090119;28;20028;-76
2021/09/23 06:07:27;;;;;;;31.40;7.38;;;;;;;14.88;100.00;99978.38;5071955;28;20035;-75
2021/09/23 06:09:53;;;;;;;22.80;6.65;;;;;;;14.90;100.00;99986.28;5072088;28;20036;-76
2021/09/23 06:12:18;;;;;;;22.80;7.20;;;;;;;14.93;100.00;99963.69;5083597;28;20031;-75
2021/09/23 06:14:44;;;;;;;21.92;6.80;;;;;;;14.95;100.00;99962.22;5071711;28;20036;-76
2021/09/23 06:17:09;;;;;;;19.90;6.60;;;;;;;14.97;100.00;99959.94;5071741;28;20119;-75
2021/09/23 06:19:34;;;;;;;20.05;6.40;;;;;;;14.98;100.00;99942.38;5073710;28;20122;-75
2021/09/23 06:22:00;;;;;;;25.15;7.38;;;;;;;15.00;100.00;99942.81;5087602;28;20381;-75
2021/09/23 06:24:25;;;;;;;20.98;6.10;;;;;;;15.04;100.00;99929.28;5092026;28;20020;-75
2021/09/23 06:26:51;;;;;;;19.27;5.88;;;;;;;15.04;100.00;99935.56;5093148;28;20028;-75
2021/09/23 06:29:17;;;;;;;19.02;7.28;;;;;;;15.03;100.00;99933.97;5087820;28;20343;-75
2021/09/23 06:31:42;;;;;;;16.25;5.88;;;;;;;15.03;100.00;99897.47;5082834;28;20024;-76
2021/09/23 06:34:08;;;;;;;14.15;4.68;;;;;;;15.02;100.00;99895.84;5076582;28;20058;-76
2021/09/23 06:36:34;;;;;;;21.48;6.75;;;;;;;15.01;100.00;99889.56;5082817;28;20047;-76
2021/09/23 06:39:00;;;;;;;28.90;6.85;;;;;;;15.02;100.00;99885.69;5089656;28;20020;-76
2021/09/23 06:41:25;;;;;;;23.83;7.03;;;;;;;15.04;100.00;99888.09;5081774;28;20406;-76
2021/09/23 06:43:51;;;;;;;26.40;7.40;;;;;;;15.04;100.00;99869.69;5081537;28;20032;-76
2021/09/23 06:46:19;;;;;;;29.73;7.32;;;;;;;15.05;100.00;99865.00;5086610;28;20024;-75
2021/09/23 06:48:44;;;;;;;19.73;5.80;;;;;;;15.06;100.00;99859.19;5068332;28;20165;-76
2021/09/23 06:51:10;;;;;;;18.10;5.57;;;;;;;15.06;100.00;99829.00;5079537;28;20024;-76
2021/09/23 06:53:35;;;;;;;14.77;4.85;;;;;;;15.08;100.00;99834.16;5089304;28;20046;-76
2021/09/23 06:56:00;;;;;;;27.02;5.85;;;;;;;15.08;100.00;99847.88;5088441;28;20028;-76
2021/09/23 06:58:26;;;;;;;21.80;4.97;;;;;;;15.09;100.00;99813.81;5077113;28;20024;-76
2021/09/23 07:00:53;;;;;;;18.52;4.65;;;;;;;15.08;100.00;99818.47;5092501;28;20027;-76
2021/09/23 07:03:18;;;;;;;20.40;5.45;;;;;;;15.06;100.00;99848.22;5075628;28;20025;-76
2021/09/23 07:05:44;;;;;;;20.50;4.43;;;;;;;15.03;100.00;99815.94;5087416;28;20058;-76
2021/09/23 07:08:10;;;;;;;10.68;3.05;;;;;;;15.00;100.00;99816.56;5077211;28;20021;-76
2021/09/23 07:10:36;;;;;;;20.83;4.78;;;;;;;15.03;100.00;99826.09;5077533;28;20154;-75
2021/09/23 07:13:01;;;;;;;17.58;3.80;;;;;;;15.07;100.00;99810.59;5072846;28;20103;-75
2021/09/23 07:15:26;;;;;;;12.73;4.30;;;;;;;15.08;100.00;99801.22;5067300;28;20051;-75
2021/09/23 07:17:52;;;;;;;17.83;4.35;;;;;;;15.08;100.00;99804.75;5073133;28;20540;-76
2021/09/23 07:20:17;;;;;;;40.13;6.50;;;;;;;14.89;100.00;99840.00;5073766;28;20020;-77
2021/09/23 07:22:43;;;;;;;48.70;6.32;;;;;;;14.48;99.89;99822.13;5079210;28;20027;-76
2021/09/23 07:25:08;;;;;;;34.30;4.07;;;;;;;14.16;99.79;99831.66;5074094;28;20031;-76
2021/09/23 07:27:34;;;;;;;18.27;2.67;;;;;;;13.93;99.94;99825.47;5081858;28;20056;-76
2021/09/23 07:29:59;;;;;;;6.60;1.67;;;;;;;13.77;99.82;99803.19;5074105;28;20378;-76
2021/09/23 07:32:25;;;;;;;12.00;2.10;;;;;;;13.67;99.71;99815.28;5083384;28;20032;-77
2021/09/23 07:34:50;;;;;;;27.15;3.78;;;;;;;13.61;99.90;99808.31;5081841;28;20094;-76
2021/09/23 07:37:15;;;;;;;22.42;3.85;;;;;;;13.59;99.82;99804.31;5076217;28;20131;-76
2021/09/23 07:39:41;;;;;;;23.63;2.97;;;;;;;13.61;100.00;99800.09;5083801;28;20084;-77
2021/09/23 07:42:07;;;;;;;15.93;2.47;;;;;;;13.68;100.00;99791.44;5080178;28;20052;-75
2021/09/23 07:44:33;;;;;;;7.38;1.40;;;;;;;13.72;100.00;99786.91;5087815;28;20031;-76
2021/09/23 07:46:59;;;;;;;8.48;1.52;;;;;;;13.79;100.00;99770.03;5081672;28;20028;-76
2021/09/23 07:49:24;;;;;;;9.38;1.70;;;;;;;13.84;100.00;99791.78;5087854;28;20016;-76
2021/09/23 07:51:50;;;;;;;11.55;2.03;;;;;;;13.79;99.79;99767.28;5082159;28;20108;-76
2021/09/23 07:54:15;;;;;;;9.60;1.48;;;;;;;13.80;100.00;99763.41;5074060;28;20074;-76
2021/09/23 07:56:44;;;;;;;11.95;1.17;;;;;;;13.81;100.00;99759.56;5079327;28;20028;-76
2021/09/23 07:59:09;;;;;;;9.02;1.75;;;;;;;13.82;100.00;99761.16;5078196;28;20096;-76
2021/09/23 08:01:35;;;;;;;19.42;1.98;;;;;;;13.82;99.84;99750.19;5083600;28;20154;-77
2021/09/23 08:04:01;;;;;;;10.63;1.58;;;;;;;13.81;99.86;99759.56;5077973;28;20487;-77
2021/09/23 08:06:26;;;;;;;10.50;1.63;;;;;;;13.82;99.91;99734.56;5063735;28;20028;-77
2021/09/23 08:08:52;;;;;;;12.20;2.15;;;;;;;13.86;99.83;99730.06;5084834;28;20090;-77
2021/09/23 08:11:17;;;;;;;8.80;1.60;;;;;;;13.85;99.80;99725.69;5081414;28;20035;-77
2021/09/23 08:13:43;;;;;;;7.65;1.67;;;;;;;13.91;99.58;99726.34;5082390;28;20027;-76
2021/09/23 08:16:08;;;;;;;7.68;1.80;;;;;;;13.99;99.82;99712.66;5080221;28;20478;-77
2021/09/23 08:18:34;;;;;;;10.88;1.75;;;;;;;14.07;99.76;99702.81;5080316;28;20172;-77
2021/09/23 08:20:59;;;;;;;8.38;1.73;;;;;;;14.13;99.78;99696.06;5077971;28;20016;-77
2021/09/23 08:23:24;;;;;;;14.30;2.25;;;;;;;14.16;99.71;99700.88;5082501;28;20363;-77
2021/09/23 08:25:52;;;;;;;16.15;2.90;;;;;;;14.18;99.51;99708.75;5081259;28;20032;-76
2021/09/23 08:28:18;;;;;;;29.25;3.80;;;;;;;14.09;99.04;99683.31;5086983;28;20024;-76
2021/09/23 08:30:46;;;;;;;15.43;2.97;;;;;;;14.01;99.12;99679.44;5079333;28;20028;-76
2021/09/23 08:33:11;;;;;;;15.05;2.70;;;;;;;13.93;99.25;99691.22;5088737;28;20027;-76
2021/09/23 08:35:37;;;;;;;26.88;3.97;;;;;;;13.90;98.88;99694.59;5083992;28;20032;-76
2021/09/23 08:38:02;;;;;;;18.35;3.97;;;;;;;13.91;99.01;99666.06;5083363;28;20038;-76
2021/09/23 08:40:28;;;;;;;16.80;3.22;;;;;;;13.89;98.82;99674.63;5081228;28;20039;-76
2021/09/23 08:42:53;;;;;;;22.33;4.40;;;;;;;13.86;99.08;99658.00;5077797;28;20056;-80
2021/09/23 08:45:20;;;;;;;22.95;4.32;;;;;;;13.77;98.63;99668.97;5075895;28;20040;-79
2021/09/23 08:47:46;;;;;;;26.02;4.97;;;;;;;13.63;98.36;99660.91;5083651;28;20020;-80
2021/09/23 08:50:12;;;;;;;25.30;5.22;;;;;;;13.53;98.62;99639.31;5081014;28;20032;-81
2021/09/23 08:52:38;;;;;;;43.85;6.18;;;;;;;13.30;98.38;99661.38;5085670;28;20148;-81
2021/09/23 08:55:04;;;;;;;28.27;3.85;;;;;;;13.09;98.15;99674.84;5078188;28;20107;-80
2021/09/23 08:57:30;;;;;;;31.92;5.25;;;;;;;12.97;98.03;99643.72;5080768;28;20032;-80
2021/09/23 08:59:55;;;;;;;21.65;3.67;;;;;;;12.91;98.37;99645.81;5086037;28;20049;-80
2021/09/23 09:02:25;;;;;;;35.42;5.65;;;;;;;12.88;98.38;99611.69;5072122;28;20042;-80
2021/09/23 09:04:55;;;;;;;26.42;4.80;;;;;;;12.89;98.35;99621.50;5080757;28;20028;-78
2021/09/23 09:07:25;;;;;;;21.13;4.63;;;;;;;12.90;98.25;99605.88;5087999;28;20032;-78
2021/09/23 09:09:52;;;;;;;21.10;4.22;;;;;;;12.94;98.32;99589.66;5076294;28;20028;-77
2021/09/23 09:12:17;;;;;;;23.25;3.50;;;;;;;12.96;98.04;99607.38;5085136;28;20032;-78
2021/09/23 09:14:45;;;;;;;26.33;4.45;;;;;;;12.98;97.80;99591.41;5083585;28;20028;-77
2021/09/23 09:17:10;;;;;;;30.00;4.82;;;;;;;13.01;97.60;99593.53;5065262;28;20043;-77
2021/09/23 09:20:06;;;;;;;27.60;4.30;;;;;;;13.06;97.79;99589.81;5077668;28;20692;-77
2021/09/23 09:22:33;;;;;;;21.35;4.75;;;;;;;13.13;97.65;99611.25;5074227;28;20036;-77
2021/09/23 09:25:09;;;;;;;20.20;3.15;;;;;;;13.16;97.49;99616.88;5073030;28;20069;-77
2021/09/23 09:27:37;;;;;;;22.23;4.63;;;;;;;13.22;97.32;99595.66;5080507;28;20032;-77
2021/09/23 09:30:24;;;;;;;24.48;3.60;;;;;;;13.24;97.07;99615.28;5080533;28;20558;-77
2021/09/23 09:32:59;;;;;;;27.88;3.80;;;;;;;13.25;97.01;99579.38;5082885;28;20024;-77
2021/09/23 09:35:34;;;;;;;13.13;3.47;;;;;;;13.14;96.57;99615.59;5079099;28;20035;-78
2021/09/23 09:38:00;;;;;;;38.78;6.07;;;;;;;13.06;96.79;99630.88;5050572;28;20412;-79
2021/09/23 09:40:32;;;;;;;17.35;1.92;;;;;;;12.61;96.50;99576.38;5079501;28;20140;-77
2021/09/23 09:42:57;;;;;;;5.53;1.20;;;;;;;12.36;96.42;99586.91;5081570;28;20069;-76
2021/09/23 09:45:26;;;;;;;6.80;1.23;;;;;;;12.23;96.83;99595.19;5058954;28;20039;-76
2021/09/23 09:47:54;;;;;;;4.53;0.75;;;;;;;12.13;97.21;99577.13;5083899;28;20024;-77
2021/09/23 09:50:25;;;;;;;6.25;1.20;;;;;;;12.16;97.31;99579.25;5075885;28;20051;-76
2021/09/23 09:52:59;;;;;;;5.50;1.20;;;;;;;12.22;97.37;99572.50;5092622;28;20046;-77
2021/09/23 09:55:25;;;;;;;5.93;1.20;;;;;;;12.26;97.42;99554.38;5075253;28;20137;-77
2021/09/23 09:57:51;;;;;;;9.60;2.00;;;;;;;12.31;97.12;99567.13;5077949;28;20035;-77
2021/09/23 10:00:17;;;;;;;4.00;1.10;;;;;;;12.40;97.15;99555.06;5081826;28;20020;-77
2021/09/23 10:02:43;;;;;;;3.60;0.93;;;;;;;12.43;96.98;99568.09;5081412;28;20096;-77
2021/09/23 10:05:13;;;;;;;6.28;1.15;;;;;;;12.47;96.93;99575.66;5076721;28;20054;-77
2021/09/23 10:07:40;;;;;;;7.05;1.42;;;;;;;12.50;96.61;99558.66;5081258;28;20392;-77
2021/09/23 10:10:07;;;;;;;4.63;1.17;;;;;;;12.48;96.61;99560.91;5076324;28;20032;-77
2021/09/23 10:12:32;;;;;;;7.85;1.25;;;;;;;12.41;96.53;99581.31;5068881;28;20025;-76
2021/09/23 10:14:59;;;;;;;6.47;1.00;;;;;;;12.32;96.34;99572.25;5075887;28;20131;-76
2021/09/23 10:17:29;;;;;;;4.65;0.95;;;;;;;12.28;96.15;99562.28;5075506;28;20028;-77
2021/09/23 10:19:58;;;;;;;0.77;0.25;;;;;;;12.26;96.37;99573.50;5077560;28;20043;-75
2021/09/23 10:22:25;;;;;;;4.25;1.27;;;;;;;12.30;96.50;99549.88;5081024;28;20060;-75
2021/09/23 10:24:50;;;;;;;5.60;1.20;;;;;;;12.41;96.78;99545.78;5069589;28;20406;-75
2021/09/23 10:30:00;;;;;;;9.27;1.55;;;;;;;12.59;96.22;99551.28;5082220;28;20023;-75
2021/09/23 10:32:25;;;;;;;5.78;1.13;;;;;;;12.69;95.85;99561.94;5064174;28;20020;-76
2021/09/23 10:34:51;;;;;;;9.15;1.60;;;;;;;12.82;95.96;99547.31;5074890;28;20420;-75
2021/09/23 10:37:17;;;;;;;7.22;1.23;;;;;;;12.96;95.34;99532.69;5075424;28;20024;-76
2021/09/23 10:39:43;;;;;;;9.98;1.70;;;;;;;13.05;94.61;99525.31;5082198;28;20051;-74
2021/09/23 10:42:11;;;;;;;9.85;1.17;;;;;;;13.16;94.50;99521.13;5078426;28;20425;-76
2021/09/23 10:44:40;;;;;;;5.25;1.00;;;;;;;13.26;94.29;99504.41;5081967;28;20046;-75
2021/09/23 10:47:06;;;;;;;7.75;1.83;;;;;;;13.31;93.97;99501.50;5084618;28;20031;-75
2021/09/23 10:49:32;;;;;;;9.90;1.40;;;;;;;13.41;93.69;99521.47;5081977;28;20078;-75
2021/09/23 10:51:58;;;;;;;11.60;2.55;;;;;;;13.52;92.81;99496.16;5084937;28;20027;-76
2021/09/23 10:54:24;;;;;;;5.47;1.58;;;;;;;13.61;91.88;99504.34;5079111;28;20036;-76
2021/09/23 10:56:50;;;;;;;9.48;1.70;;;;;;;13.71;91.65;99492.25;5075952;28;20431;-76
2021/09/23 10:59:16;;;;;;;11.48;2.40;;;;;;;13.80;91.11;99484.00;5072187;28;20096;-76
2021/09/23 11:01:43;;;;;;;10.50;2.10;;;;;;;13.86;90.88;99497.22;5056047;28;20031;-76
2021/09/23 11:04:09;;;;;;;13.77;2.22;;;;;;;13.95;90.56;99497.97;5080338;28;20023;-76
2021/09/23 11:06:39;;;;;;;17.30;2.47;;;;;;;14.29;90.52;99511.84;5065143;28;20111;-76
2021/09/23 11:09:35;;;;;;;13.27;2.38;;;;;;;14.48;89.16;99484.00;5075670;28;20059;-76
2021/09/23 11:12:03;;;;;;;13.25;2.10;;;;;;;14.78;88.69;99479.34;5065311;28;20131;-77
2021/09/23 11:14:29;;;;;;;14.98;2.63;;;;;;;14.84;87.55;99478.00;5055813;28;20066;-78
2021/09/23 11:16:57;;;;;;;12.13;2.65;;;;;;;14.88;87.08;99476.19;5077834;28;20024;-78
2021/09/23 11:19:23;;;;;;;9.63;1.88;;;;;;;14.90;86.35;99475.88;5081173;28;20115;-78